Time;durP1;ratioP1;P1;durP2;ratioP2;P2;SDS_P1;SDS_P2;PMS_P1;PMS_P2;Temp;Humidity;BMP_temperature;BMP_pressure;BME280_temperature;BME280_humidity;BME280_pressure;Samples;Min_cycle;Max_cycle;Signal;HPM_P1;HPM_P2
2021/08/03 00:00:53;;;;;;;30.63;8.52;;;;;;;29.54;24.16;99033.41;5068759;28;20062;-70
2021/08/03 00:03:26;;;;;;;26.08;8.30;;;;;;;29.58;24.04;99033.25;5072920;28;20064;-70
2021/08/03 00:05:53;;;;;;;18.60;7.32;;;;;;;29.55;24.38;99035.00;5072916;28;20059;-71
2021/08/03 00:08:27;;;;;;;20.35;8.82;;;;;;;29.37;24.87;99039.41;5072862;28;20040;-70
2021/08/03 00:10:53;;;;;;;16.08;7.43;;;;;;;29.10;25.36;99046.69;5072896;28;20035;-70
2021/08/03 00:13:19;;;;;;;18.75;8.43;;;;;;;29.19;25.43;99043.03;5072729;28;20032;-70
2021/08/03 00:15:47;;;;;;;18.65;7.05;;;;;;;29.22;25.48;99047.84;5071459;28;20028;-70
2021/08/03 00:18:16;;;;;;;21.98;9.00;;;;;;;29.05;25.49;99049.38;5072599;28;20521;-70
2021/08/03 00:20:42;;;;;;;22.40;7.80;;;;;;;29.00;25.74;99047.91;5072750;28;20029;-71
2021/08/03 00:23:09;;;;;;;23.08;7.95;;;;;;;28.89;26.37;99050.41;5072339;28;20798;-71
2021/08/03 00:25:35;;;;;;;17.52;8.23;;;;;;;28.75;26.31;99046.03;5072631;28;20029;-71
2021/08/03 00:28:02;;;;;;;23.77;8.18;;;;;;;28.67;26.66;99054.91;5072354;28;20047;-70
2021/08/03 00:30:27;;;;;;;22.02;8.40;;;;;;;28.58;26.99;99049.91;5072407;28;20453;-70
2021/08/03 00:32:53;;;;;;;19.25;6.97;;;;;;;28.60;27.43;99058.09;5072368;28;20080;-71
2021/08/03 00:35:21;;;;;;;19.90;7.28;;;;;;;28.55;27.62;99059.50;5072322;28;20031;-70
2021/08/03 00:37:47;;;;;;;15.50;7.53;;;;;;;28.51;28.35;99060.91;5071133;28;20145;-71
2021/08/03 00:40:15;;;;;;;23.33;6.68;;;;;;;28.55;28.53;99052.94;5072127;28;20443;-70
2021/08/03 00:42:40;;;;;;;14.82;8.27;;;;;;;28.57;28.70;99064.75;5072164;28;20120;-70
2021/08/03 00:45:06;;;;;;;21.27;7.28;;;;;;;28.51;29.73;99058.03;5072022;28;20111;-70
2021/08/03 00:47:32;;;;;;;16.10;7.57;;;;;;;28.42;30.31;99073.94;5072127;28;20029;-71
2021/08/03 00:49:58;;;;;;;16.02;6.95;;;;;;;28.42;30.70;99055.91;5072051;28;20064;-71
2021/08/03 00:52:26;;;;;;;25.13;7.15;;;;;;;28.48;30.61;99059.75;5072384;28;20033;-71
2021/08/03 00:54:52;;;;;;;18.73;7.07;;;;;;;28.55;30.45;99067.31;5071904;28;20409;-71
2021/08/03 00:57:18;;;;;;;17.25;7.15;;;;;;;28.52;31.10;99059.63;5071645;28;20032;-71
2021/08/03 00:59:43;;;;;;;16.38;6.15;;;;;;;28.53;31.31;99067.75;5070575;28;20024;-70
2021/08/03 01:02:09;;;;;;;18.17;6.97;;;;;;;28.43;31.54;99066.13;5071739;28;20045;-71
2021/08/03 01:04:35;;;;;;;13.55;7.35;;;;;;;28.54;31.62;99063.66;5071708;28;20107;-71
2021/08/03 01:07:03;;;;;;;17.83;6.65;;;;;;;28.50;31.48;99065.06;5071711;28;20086;-71
2021/08/03 01:09:35;;;;;;;14.02;6.43;;;;;;;28.58;31.47;99066.34;5071667;28;20044;-70
2021/08/03 01:12:29;;;;;;;21.13;7.55;;;;;;;28.59;31.67;99071.66;5071394;28;20037;-70
2021/08/03 01:15:09;;;;;;;16.90;6.75;;;;;;;28.60;31.87;99072.47;5071601;28;20029;-70
2021/08/03 01:17:44;;;;;;;12.88;6.18;;;;;;;28.59;32.11;99082.34;5071368;28;20036;-71
2021/08/03 01:20:48;;;;;;;12.82;6.07;;;;;;;28.57;32.37;99082.84;5070107;28;20387;-71
2021/08/03 01:23:31;;;;;;;18.05;6.78;;;;;;;28.40;32.81;99081.41;5071318;28;20036;-70
2021/08/03 01:26:04;;;;;;;17.83;6.10;;;;;;;28.34;33.20;99081.22;5071336;28;20036;-71
2021/08/03 01:28:41;;;;;;;15.88;6.07;;;;;;;28.48;32.74;99079.06;5071596;28;20036;-70
2021/08/03 01:31:15;;;;;;;11.93;5.20;;;;;;;28.34;33.26;99080.44;5071462;28;20028;-70
2021/08/03 01:33:46;;;;;;;12.50;6.25;;;;;;;28.44;33.01;99090.72;5071248;28;20105;-71
2021/08/03 01:36:12;;;;;;;18.75;6.38;;;;;;;28.46;33.41;99088.19;5071168;28;20052;-71
2021/08/03 01:38:40;;;;;;;17.23;6.20;;;;;;;28.43;33.42;99092.78;5071093;28;20032;-71
2021/08/03 01:41:09;;;;;;;11.82;5.78;;;;;;;28.30;33.81;99086.31;5071189;28;20398;-70
2021/08/03 01:43:35;;;;;;;10.43;5.95;;;;;;;28.31;33.95;99085.03;5070873;28;20051;-71
2021/08/03 01:46:03;;;;;;;18.48;6.80;;;;;;;28.14;34.17;99082.31;5071084;28;20478;-71
2021/08/03 01:48:30;;;;;;;13.93;6.28;;;;;;;28.24;34.01;99085.31;5069481;28;20036;-70
2021/08/03 01:50:56;;;;;;;12.30;5.97;;;;;;;28.25;34.07;99081.16;5069566;28;20532;-71
2021/08/03 01:53:26;;;;;;;17.20;7.20;;;;;;;28.26;33.82;99083.56;5070698;28;20056;-70
2021/08/03 01:55:56;;;;;;;;;;;;;;;28.32;33.84;99078.00;5071432;28;20032;-71
2021/08/03 01:58:22;;;;;;;11.05;6.80;;;;;;;28.15;34.24;99086.00;5069593;28;20314;-70
2021/08/03 02:00:51;;;;;;;18.73;6.38;;;;;;;27.97;34.59;99083.75;5070689;28;20032;-71
2021/08/03 02:03:20;;;;;;;11.25;5.55;;;;;;;28.00;34.54;99079.97;5070778;28;20029;-71
2021/08/03 02:05:47;;;;;;;17.55;6.28;;;;;;;27.95;34.62;99092.03;5070699;28;20040;-70
2021/08/03 02:08:16;;;;;;;15.30;5.28;;;;;;;27.91;34.92;99082.75;5070830;28;20031;-71
2021/08/03 02:10:41;;;;;;;14.43;5.50;;;;;;;27.76;35.05;99094.75;5070487;28;20063;-71
2021/08/03 02:13:07;;;;;;;20.00;6.47;;;;;;;27.88;34.91;99105.41;5070542;28;20040;-71
2021/08/03 02:15:33;;;;;;;11.35;5.97;;;;;;;27.78;35.00;99094.28;5069019;28;20029;-71
2021/08/03 02:17:59;;;;;;;11.85;6.22;;;;;;;27.73;35.14;99107.16;5069935;28;20071;-70
2021/08/03 02:20:25;;;;;;;18.58;6.45;;;;;;;27.77;35.17;99116.47;5069028;28;20037;-70
2021/08/03 02:22:51;;;;;;;43.47;7.82;;;;;;;27.69;35.27;99124.50;5070351;28;20674;-70
2021/08/03 02:25:17;;;;;;;13.68;5.97;;;;;;;27.71;35.33;99116.25;5069195;28;20474;-71
2021/08/03 02:27:43;;;;;;;13.85;5.43;;;;;;;27.62;35.58;99130.50;5070242;28;20024;-70
2021/08/03 02:30:10;;;;;;;15.20;6.10;;;;;;;27.46;36.24;99137.13;5070370;28;20076;-70
2021/08/03 02:33:18;;;;;;;13.13;6.45;;;;;;;27.39;36.61;99143.09;5070280;28;20082;-71
2021/08/03 02:35:59;;;;;;;15.27;5.88;;;;;;;27.44;36.90;99145.41;5070396;28;20510;-70
2021/08/03 02:38:28;;;;;;;14.25;6.53;;;;;;;27.26;37.46;99154.59;5070200;28;20037;-71
2021/08/03 02:40:56;;;;;;;18.77;6.07;;;;;;;27.26;37.68;99161.13;5070473;28;20106;-70
2021/08/03 02:43:24;;;;;;;15.60;6.18;;;;;;;27.28;38.07;99166.41;5070159;28;20413;-70
2021/08/03 02:45:49;;;;;;;18.50;6.90;;;;;;;27.22;38.31;99157.56;5070060;28;20029;-70
2021/08/03 02:48:16;;;;;;;17.02;6.82;;;;;;;27.19;38.17;99170.75;5068771;28;20033;-70
2021/08/03 02:50:45;;;;;;;18.85;6.20;;;;;;;27.02;38.76;99177.88;5070685;28;20032;-71
2021/08/03 02:53:24;;;;;;;15.23;6.32;;;;;;;26.87;40.01;99174.59;5070300;28;20043;-70
2021/08/03 02:56:06;;;;;;;28.98;7.07;;;;;;;26.80;40.42;99181.31;5069064;28;20025;-70
2021/08/03 02:58:46;;;;;;;11.98;6.15;;;;;;;26.71;41.17;99186.91;5058543;28;20041;-70
2021/08/03 03:01:13;;;;;;;13.77;7.28;;;;;;;26.69;41.86;99184.53;5070204;28;20090;-71
2021/08/03 03:03:45;;;;;;;21.05;6.32;;;;;;;26.57;42.60;99180.31;5069849;28;20032;-70
2021/08/03 03:06:12;;;;;;;9.05;5.22;;;;;;;26.56;43.15;99180.81;5068736;28;20036;-70
2021/08/03 03:08:43;;;;;;;62.78;7.72;;;;;;;26.59;43.07;99177.03;5069911;28;20052;-71
2021/08/03 03:11:10;;;;;;;17.55;6.57;;;;;;;26.57;43.38;99183.19;5070241;28;20024;-70
2021/08/03 03:13:46;;;;;;;17.23;6.20;;;;;;;26.75;42.96;99188.44;5068498;28;20059;-70
2021/08/03 03:16:13;;;;;;;12.77;6.88;;;;;;;26.59;43.68;99186.41;5062135;28;20131;-70
2021/08/03 03:18:40;;;;;;;20.48;5.90;;;;;;;26.75;43.22;99194.16;5068534;28;20029;-71
2021/08/03 03:21:07;;;;;;;14.77;5.80;;;;;;;26.67;43.73;99201.38;5064162;28;20024;-70
2021/08/03 03:23:37;;;;;;;17.95;6.20;;;;;;;26.54;44.07;99194.75;5052841;28;20108;-70
2021/08/03 03:26:05;;;;;;;15.45;6.03;;;;;;;26.72;43.86;99200.81;5056466;28;20021;-71
2021/08/03 03:28:34;;;;;;;16.67;5.45;;;;;;;26.70;43.78;99191.03;5068281;28;20060;-71
2021/08/03 03:31:00;;;;;;;16.73;5.78;;;;;;;26.84;43.31;99201.31;5063110;28;20429;-70
2021/08/03 03:33:28;;;;;;;9.63;5.88;;;;;;;26.90;43.20;99205.25;5061951;28;20087;-70
2021/08/03 03:35:58;;;;;;;13.32;5.53;;;;;;;26.82;43.26;99198.09;5073005;28;20039;-70
2021/08/03 03:38:29;;;;;;;17.20;6.38;;;;;;;26.76;43.57;99201.50;5073186;28;20054;-71
2021/08/03 03:40:55;;;;;;;18.50;5.57;;;;;;;26.91;43.15;99221.22;5073524;28;20418;-70
2021/08/03 03:43:21;;;;;;;19.63;5.25;;;;;;;26.77;43.57;99205.97;5073087;28;20032;-72
2021/08/03 03:45:55;;;;;;;25.80;6.32;;;;;;;26.82;43.08;99209.56;5073124;28;20031;-73
2021/08/03 03:48:26;;;;;;;12.82;6.18;;;;;;;26.97;43.14;99209.97;5069775;28;20060;-72
2021/08/03 03:50:59;;;;;;;11.68;5.35;;;;;;;27.09;42.94;99212.09;5071228;28;20032;-72
2021/08/03 03:53:32;;;;;;;16.70;6.25;;;;;;;27.07;43.20;99214.59;5071004;28;20403;-72
2021/08/03 03:56:04;;;;;;;13.68;5.20;;;;;;;27.13;42.88;99215.66;5071307;28;20059;-71
2021/08/03 03:58:33;;;;;;;13.63;5.38;;;;;;;27.10;43.13;99212.88;5072050;28;20025;-70
2021/08/03 04:00:59;;;;;;;17.65;6.00;;;;;;;27.04;43.29;99224.94;5069657;28;20028;-71
2021/08/03 04:03:25;;;;;;;14.65;5.50;;;;;;;26.94;43.88;99223.19;5072882;28;20547;-71
2021/08/03 04:05:53;;;;;;;13.75;5.70;;;;;;;27.05;43.54;99235.16;5071324;28;20040;-71
2021/08/03 04:08:19;;;;;;;10.45;5.13;;;;;;;27.03;43.73;99222.50;5072902;28;20064;-71
2021/08/03 04:10:45;;;;;;;12.27;5.20;;;;;;;27.09;43.61;99217.84;5071108;28;20486;-72
2021/08/03 04:13:12;;;;;;;22.30;5.45;;;;;;;27.00;43.66;99226.28;5068335;28;20528;-75
2021/08/03 04:15:38;;;;;;;11.35;5.40;;;;;;;27.07;43.14;99228.16;5065181;28;20060;-73
2021/08/03 04:18:04;;;;;;;13.65;4.82;;;;;;;27.18;42.96;99243.00;5070790;28;20083;-71
2021/08/03 04:20:29;;;;;;;18.95;5.50;;;;;;;27.18;42.98;99237.25;5072606;28;20029;-72
2021/08/03 04:22:55;;;;;;;15.32;4.97;;;;;;;27.31;42.18;99243.81;5072377;28;20508;-71
2021/08/03 04:25:21;;;;;;;15.27;4.72;;;;;;;27.25;42.42;99245.63;5072483;28;20028;-71
2021/08/03 04:27:46;;;;;;;17.25;5.72;;;;;;;27.25;42.31;99256.31;5072206;28;20021;-70
2021/08/03 04:30:14;;;;;;;21.20;6.03;;;;;;;27.34;42.09;99253.59;5072277;28;20115;-71
2021/08/03 04:32:43;;;;;;;19.27;5.70;;;;;;;27.37;41.96;99249.81;5072425;28;20108;-72
2021/08/03 04:35:10;;;;;;;18.10;5.20;;;;;;;27.36;41.91;99253.94;5071007;28;20020;-71
2021/08/03 04:37:45;;;;;;;15.30;7.05;;;;;;;27.43;41.35;99255.78;5072443;28;20057;-72
2021/08/03 04:40:13;;;;;;;14.73;6.63;;;;;;;27.55;40.91;99248.47;5061226;28;20028;-71
2021/08/03 04:42:39;;;;;;;17.52;6.65;;;;;;;27.46;40.71;99254.88;5060657;28;20422;-70
2021/08/03 04:45:05;;;;;;;20.15;7.10;;;;;;;27.52;40.50;99267.41;5072016;28;20028;-70
2021/08/03 04:47:31;;;;;;;26.88;6.72;;;;;;;27.66;39.57;99263.28;5072242;28;20529;-74
2021/08/03 04:49:57;;;;;;;15.93;6.57;;;;;;;27.70;39.01;99266.06;5071670;28;20046;-70
2021/08/03 04:52:22;;;;;;;14.60;6.45;;;;;;;27.69;38.55;99258.72;5072093;28;20417;-69
2021/08/03 04:54:47;;;;;;;14.35;5.95;;;;;;;27.68;38.95;99274.34;5071787;28;20074;-72
2021/08/03 04:57:13;;;;;;;12.93;7.15;;;;;;;27.75;39.35;99269.16;5071636;28;20032;-71
2021/08/03 04:59:39;;;;;;;13.95;5.63;;;;;;;27.80;39.91;99276.41;5070402;28;20157;-71
2021/08/03 05:02:04;;;;;;;15.20;6.25;;;;;;;27.77;40.03;99283.09;5070505;28;20464;-72
2021/08/03 05:04:33;;;;;;;16.60;5.25;;;;;;;27.84;40.06;99279.97;5071766;28;20024;-73
2021/08/03 05:07:00;;;;;;;17.00;5.47;;;;;;;27.87;39.93;99287.69;5069934;28;20506;-72
2021/08/03 05:09:26;;;;;;;12.50;5.68;;;;;;;27.77;40.58;99288.00;5069997;28;20035;-73
2021/08/03 05:11:51;;;;;;;16.45;6.15;;;;;;;27.80;40.19;99282.16;5071824;28;20028;-71
2021/08/03 05:14:17;;;;;;;17.15;6.80;;;;;;;27.87;39.65;99276.19;5071090;28;20040;-70
2021/08/03 05:16:42;;;;;;;15.43;6.22;;;;;;;27.91;40.41;99281.00;5067681;28;20020;-75
2021/08/03 05:19:07;;;;;;;13.30;6.78;;;;;;;27.80;40.63;99287.09;5059049;28;20032;-72
2021/08/03 05:21:33;;;;;;;10.70;5.75;;;;;;;27.88;40.91;99285.59;5069094;28;20032;-70
2021/08/03 05:23:58;;;;;;;17.08;4.97;;;;;;;27.93;40.71;99289.97;5068228;28;20429;-75
2021/08/03 05:26:24;;;;;;;12.57;5.82;;;;;;;27.69;42.19;99290.31;5069519;28;20035;-76
2021/08/03 05:28:49;;;;;;;13.02;5.47;;;;;;;27.81;41.62;99289.50;5069480;28;20117;-76
2021/08/03 05:31:15;;;;;;;16.23;6.82;;;;;;;27.85;41.38;99290.19;5061894;28;20628;-76
2021/08/03 05:33:40;;;;;;;13.52;6.55;;;;;;;27.93;41.47;99299.38;5069907;28;20024;-76
2021/08/03 05:36:07;;;;;;;10.85;6.00;;;;;;;28.11;41.21;99286.53;5071177;28;20471;-72
2021/08/03 05:38:32;;;;;;;13.85;5.00;;;;;;;28.13;40.79;99293.41;5070888;28;20101;-73
2021/08/03 05:40:58;;;;;;;18.55;6.20;;;;;;;28.19;41.39;99293.69;5069905;28;20029;-73
2021/08/03 05:43:23;;;;;;;14.75;4.93;;;;;;;28.29;40.89;99297.47;5070927;28;20029;-74
2021/08/03 05:45:49;;;;;;;22.05;5.53;;;;;;;28.35;41.54;99297.69;5071267;28;20494;-73
2021/08/03 05:48:15;;;;;;;11.23;5.20;;;;;;;28.37;41.25;99298.84;5070826;28;20048;-73
2021/08/03 05:50:40;;;;;;;13.98;5.38;;;;;;;28.40;41.08;99292.16;5065112;28;20024;-73
2021/08/03 05:53:05;;;;;;;14.38;5.55;;;;;;;28.38;40.80;99297.56;5069013;28;20028;-74
2021/08/03 05:55:31;;;;;;;9.57;5.13;;;;;;;28.43;40.67;99299.84;5068661;28;20032;-74
2021/08/03 05:57:56;;;;;;;11.32;5.22;;;;;;;28.40;41.77;99309.41;5068857;28;20029;-73
2021/08/03 06:00:22;;;;;;;23.92;5.55;;;;;;;28.59;41.15;99306.69;5067461;28;20039;-74
2021/08/03 06:02:47;;;;;;;16.10;5.43;;;;;;;28.61;41.27;99303.38;5068840;28;20036;-73
2021/08/03 06:05:13;;;;;;;10.30;5.28;;;;;;;28.72;41.12;99298.03;5067062;28;20141;-74
2021/08/03 06:07:44;;;;;;;15.75;6.07;;;;;;;28.78;40.71;99301.97;5068543;28;20058;-75
2021/08/03 06:10:14;;;;;;;13.77;6.30;;;;;;;28.83;40.87;99306.31;5070540;28;20028;-74
2021/08/03 06:12:47;;;;;;;12.85;5.00;;;;;;;28.87;40.80;99298.38;5070557;28;20095;-73
2021/08/03 06:15:13;;;;;;;19.90;5.43;;;;;;;28.93;40.91;99302.25;5070092;28;20039;-74
2021/08/03 06:17:43;;;;;;;9.73;5.47;;;;;;;29.00;41.24;99304.88;5070219;28;20028;-75
2021/08/03 06:20:09;;;;;;;13.00;5.85;;;;;;;29.21;40.94;99316.06;5069859;28;20532;-73
2021/08/03 06:22:36;;;;;;;13.25;5.55;;;;;;;29.25;40.53;99300.28;5068778;28;20119;-73
2021/08/03 06:25:04;;;;;;;9.98;5.50;;;;;;;29.41;40.29;99307.09;5068673;28;20036;-73
2021/08/03 06:27:31;;;;;;;17.95;5.47;;;;;;;29.34;39.98;99301.63;5068757;28;20395;-72
2021/08/03 06:29:59;;;;;;;13.75;6.28;;;;;;;29.42;39.96;99297.19;5070058;28;20065;-74
2021/08/03 06:32:25;;;;;;;9.93;5.03;;;;;;;29.61;39.30;99305.97;5070263;28;20032;-74
2021/08/03 06:34:51;;;;;;;15.50;5.93;;;;;;;29.59;39.47;99294.13;5068721;28;20025;-75
2021/08/03 06:37:16;;;;;;;15.95;6.20;;;;;;;29.66;39.55;99299.59;5069903;28;20074;-74
2021/08/03 06:39:42;;;;;;;20.45;6.70;;;;;;;29.69;39.83;99299.44;5068783;28;20033;-75
2021/08/03 06:42:29;;;;;;;24.00;6.25;;;;;;;29.79;39.48;99300.28;5056131;28;20051;-75
2021/08/03 06:44:57;;;;;;;14.25;6.10;;;;;;;29.95;39.05;99292.69;5070230;28;20116;-75
2021/08/03 06:47:42;;;;;;;13.20;6.30;;;;;;;29.99;38.99;99304.88;5068841;28;20044;-75
2021/08/03 06:50:11;;;;;;;18.85;5.88;;;;;;;30.00;39.27;99297.03;5069952;28;20036;-75
2021/08/03 06:52:36;;;;;;;14.00;5.55;;;;;;;30.25;38.30;99298.91;5070168;28;20028;-73
2021/08/03 06:55:05;;;;;;;18.65;5.55;;;;;;;30.23;38.71;99298.59;5068285;28;20513;-74
2021/08/03 06:57:35;;;;;;;15.98;5.80;;;;;;;30.43;37.34;99292.38;5069879;28;20043;-74
2021/08/03 07:00:06;;;;;;;;;;;;;;;30.45;38.86;99289.81;5069170;28;20028;-74
2021/08/03 07:02:48;;;;;;;22.73;5.80;;;;;;;30.51;37.72;99295.75;5068510;28;19924;-74
2021/08/03 07:05:25;;;;;;;15.18;5.85;;;;;;;30.62;37.57;99296.09;5072268;28;20033;-74
2021/08/03 07:07:56;;;;;;;15.65;6.55;;;;;;;30.77;37.16;99295.50;5059859;28;20036;-75
2021/08/03 07:10:22;;;;;;;14.48;5.75;;;;;;;30.86;36.49;99292.63;5071545;28;20024;-74
2021/08/03 07:12:51;;;;;;;11.98;5.75;;;;;;;30.84;36.39;99285.75;5071706;28;20037;-77
2021/08/03 07:15:18;;;;;;;14.27;6.53;;;;;;;30.95;35.84;99291.81;5071542;28;20033;-75
2021/08/03 07:17:45;;;;;;;13.45;6.15;;;;;;;30.95;35.77;99286.84;5053866;28;20478;-76
2021/08/03 07:20:11;;;;;;;19.27;6.55;;;;;;;31.03;35.67;99280.78;5067843;28;20028;-75
2021/08/03 07:22:38;;;;;;;16.08;7.30;;;;;;;31.09;35.60;99290.38;5072114;28;20529;-75
2021/08/03 07:25:04;;;;;;;14.68;6.07;;;;;;;31.29;36.05;99280.44;5067629;28;20024;-77
2021/08/03 07:27:30;;;;;;;21.75;6.32;;;;;;;31.35;35.65;99275.63;5071365;28;20060;-74
2021/08/03 07:29:55;;;;;;;28.33;7.47;;;;;;;31.45;34.92;99277.19;5071218;28;20097;-76
2021/08/03 07:32:21;;;;;;;9.77;6.72;;;;;;;31.54;34.63;99272.69;5071445;28;20111;-75
2021/08/03 07:34:46;;;;;;;10.77;6.63;;;;;;;31.64;34.24;99277.16;5071058;28;20102;-76
2021/08/03 07:37:12;;;;;;;13.13;6.70;;;;;;;31.72;33.18;99281.28;5071192;28;20498;-71
2021/08/03 07:39:39;;;;;;;12.52;7.40;;;;;;;31.62;34.15;99280.53;5069848;28;20559;-72
2021/08/03 07:42:06;;;;;;;11.30;6.78;;;;;;;31.66;34.15;99280.34;5072451;28;20094;-73
2021/08/03 07:44:34;;;;;;;17.75;6.78;;;;;;;31.68;33.45;99282.75;5073226;28;20028;-75
2021/08/03 07:47:00;;;;;;;12.40;6.10;;;;;;;31.83;33.44;99288.69;5072860;28;20036;-75
2021/08/03 07:49:25;;;;;;;15.13;6.82;;;;;;;31.79;34.35;99291.72;5071716;28;20032;-75
2021/08/03 07:51:52;;;;;;;17.52;6.70;;;;;;;32.05;33.28;99294.22;5073209;28;20028;-74
2021/08/03 07:54:18;;;;;;;13.60;6.10;;;;;;;32.04;33.46;99290.50;5071604;28;20139;-75
2021/08/03 07:56:43;;;;;;;23.40;6.18;;;;;;;32.06;34.12;99287.16;5071177;28;20197;-73
2021/08/03 07:59:09;;;;;;;15.52;6.95;;;;;;;32.16;33.81;99280.03;5072875;28;20059;-77
2021/08/03 08:01:35;;;;;;;12.98;6.22;;;;;;;32.32;32.63;99287.47;5071754;28;20098;-75
2021/08/03 08:04:00;;;;;;;10.65;6.40;;;;;;;32.34;32.14;99287.00;5072574;28;20025;-74
2021/08/03 08:06:26;;;;;;;12.48;5.72;;;;;;;32.43;31.23;99277.47;5073010;28;20453;-75
2021/08/03 08:08:52;;;;;;;19.38;6.57;;;;;;;32.56;31.99;99289.59;5072792;28;20041;-75
2021/08/03 08:11:17;;;;;;;19.20;5.57;;;;;;;32.52;30.90;99286.09;5072935;28;20409;-76
2021/08/03 08:13:43;;;;;;;19.52;6.10;;;;;;;32.57;30.86;99291.19;5071640;28;20028;-73
2021/08/03 08:16:08;;;;;;;18.83;6.07;;;;;;;32.54;31.38;99289.31;5071807;28;20036;-73
2021/08/03 08:18:33;;;;;;;23.25;6.68;;;;;;;32.60;30.73;99287.34;5072550;28;20051;-74
2021/08/03 08:20:59;;;;;;;17.63;5.50;;;;;;;32.61;31.41;99285.22;5072529;28;20033;-74
2021/08/03 08:23:25;;;;;;;23.35;6.47;;;;;;;32.71;31.12;99289.66;5071119;28;20028;-76
2021/08/03 08:25:50;;;;;;;18.27;6.35;;;;;;;32.87;30.74;99282.63;5070931;28;20067;-78
2021/08/03 08:28:16;;;;;;;18.17;5.50;;;;;;;32.93;31.14;99279.88;5072386;28;20020;-74
2021/08/03 08:30:42;;;;;;;12.65;5.60;;;;;;;33.07;30.92;99283.28;5070877;28;20037;-75
2021/08/03 08:33:08;;;;;;;14.93;6.55;;;;;;;33.09;30.43;99275.72;5072130;28;20159;-76
2021/08/03 08:35:35;;;;;;;13.93;5.53;;;;;;;32.99;30.42;99282.88;5072213;28;20032;-74
2021/08/03 08:38:01;;;;;;;12.32;4.78;;;;;;;33.29;29.76;99277.13;5070541;28;20139;-76
2021/08/03 08:40:27;;;;;;;17.05;5.80;;;;;;;33.12;29.93;99283.41;5072236;28;20095;-73
2021/08/03 08:42:52;;;;;;;11.85;4.80;;;;;;;33.25;29.05;99282.31;5072010;28;20084;-72
2021/08/03 08:45:18;;;;;;;16.67;5.00;;;;;;;33.31;29.22;99277.44;5071891;28;20017;-75
2021/08/03 08:47:45;;;;;;;22.17;6.63;;;;;;;33.39;29.12;99281.53;5072047;28;20033;-74
2021/08/03 08:50:12;;;;;;;38.72;7.20;;;;;;;33.42;28.21;99276.84;5070392;28;20036;-75
2021/08/03 08:52:40;;;;;;;18.88;5.38;;;;;;;33.44;28.49;99277.13;5071888;28;20510;-77
2021/08/03 08:55:08;;;;;;;29.58;5.57;;;;;;;33.53;27.91;99271.28;5071583;28;20052;-76
2021/08/03 08:57:33;;;;;;;11.55;5.22;;;;;;;33.65;28.24;99271.47;5071650;28;20115;-77
2021/08/03 08:59:59;;;;;;;19.30;5.35;;;;;;;33.83;28.10;99265.44;5070258;28;20028;-76
2021/08/03 09:02:40;;;;;;;17.05;5.13;;;;;;;33.99;28.69;99267.03;5071453;28;20029;-78
2021/08/03 09:05:07;;;;;;;33.08;6.65;;;;;;;34.10;27.88;99262.72;5059279;28;20032;-74
2021/08/03 09:07:47;;;;;;;19.60;4.72;;;;;;;34.20;27.64;99254.66;5070447;28;20028;-77
2021/08/03 09:10:37;;;;;;;18.55;4.90;;;;;;;34.33;26.99;99260.13;5070264;28;20032;-76
2021/08/03 09:13:21;;;;;;;8.18;3.50;;;;;;;34.33;16.13;99254.34;5071788;28;20024;-75
2021/08/03 09:15:57;;;;;;;12.30;4.03;;;;;;;34.44;21.68;99260.28;5071364;28;20425;-75
2021/08/03 09:18:38;;;;;;;13.77;3.92;;;;;;;34.48;17.54;99257.19;5070076;28;20039;-76
2021/08/03 09:21:04;;;;;;;6.90;3.78;;;;;;;34.56;17.96;99256.25;5071383;28;20501;-76
2021/08/03 09:23:53;;;;;;;8.77;3.35;;;;;;;34.56;17.23;99246.75;5071253;28;20024;-75
2021/08/03 09:26:20;;;;;;;9.60;3.42;;;;;;;34.56;16.43;99258.34;5071322;28;20032;-75
2021/08/03 09:29:06;;;;;;;8.57;3.53;;;;;;;34.71;17.45;99252.47;5071061;28;20029;-76
2021/08/03 09:31:34;;;;;;;9.88;3.55;;;;;;;34.94;17.32;99250.66;5070929;28;20044;-75
2021/08/03 09:34:08;;;;;;;11.02;3.95;;;;;;;35.04;18.07;99256.31;5070970;28;20028;-74
2021/08/03 09:36:45;;;;;;;8.07;3.97;;;;;;;35.04;17.53;99244.69;5070840;28;20048;-76
2021/08/03 09:39:46;;;;;;;8.02;3.92;;;;;;;35.06;18.25;99242.88;5069609;28;20034;-75
2021/08/03 09:42:14;;;;;;;6.18;3.53;;;;;;;35.24;18.00;99241.75;5057418;28;20036;-75
2021/08/03 09:44:55;;;;;;;10.45;3.65;;;;;;;35.28;17.26;99239.38;5069450;28;20047;-75
2021/08/03 09:47:21;;;;;;;8.93;3.25;;;;;;;35.22;17.99;99243.56;5056273;28;20384;-74
2021/08/03 09:49:50;;;;;;;16.05;4.68;;;;;;;35.30;19.45;99241.78;5069470;28;20060;-74
2021/08/03 09:52:18;;;;;;;6.03;3.50;;;;;;;35.37;18.74;99235.53;5070584;28;20505;-74
2021/08/03 09:54:44;;;;;;;14.13;4.32;;;;;;;35.44;18.17;99239.28;5070661;28;20024;-79
2021/08/03 09:57:23;;;;;;;8.95;3.97;;;;;;;35.48;17.67;99231.91;5068872;28;20599;-75
2021/08/03 09:59:50;;;;;;;7.38;3.67;;;;;;;35.46;18.09;99227.91;5070505;28;20028;-74
2021/08/03 10:02:18;;;;;;;9.68;4.47;;;;;;;35.44;18.24;99234.28;5070377;28;20035;-75
2021/08/03 10:04:45;;;;;;;10.00;3.58;;;;;;;35.62;18.81;99218.59;5069159;28;20031;-77
2021/08/03 10:07:12;;;;;;;10.45;4.07;;;;;;;35.84;18.55;99226.66;5070306;28;20153;-78
2021/08/03 10:09:38;;;;;;;10.25;4.28;;;;;;;35.90;18.34;99220.91;5070477;28;20067;-75
2021/08/03 10:12:03;;;;;;;7.70;3.42;;;;;;;35.96;18.37;99218.03;5070209;28;20063;-75
2021/08/03 10:14:29;;;;;;;6.60;3.58;;;;;;;35.90;17.80;99223.81;5070384;28;20096;-74
2021/08/03 10:16:55;;;;;;;8.07;4.25;;;;;;;35.81;17.73;99218.19;5070654;28;20036;-74
2021/08/03 10:19:26;;;;;;;10.55;4.10;;;;;;;35.99;17.79;99208.25;5068839;28;20475;-73
2021/08/03 10:22:18;;;;;;;12.13;4.25;;;;;;;35.91;16.80;99207.94;5070762;28;20068;-75
2021/08/03 10:25:06;;;;;;;9.77;3.60;;;;;;;36.00;17.11;99217.78;5070321;28;20016;-74
2021/08/03 10:27:45;;;;;;;5.20;3.00;;;;;;;35.88;17.63;99211.91;5070305;28;20151;-76
2021/08/03 10:30:29;;;;;;;13.65;3.97;;;;;;;35.96;17.43;99212.22;5068751;28;20028;-75
2021/08/03 10:32:54;;;;;;;8.13;4.05;;;;;;;36.07;17.29;99220.22;5070088;28;20029;-73
2021/08/03 10:35:43;;;;;;;9.50;4.25;;;;;;;36.17;18.02;99203.38;5068778;28;20111;-74
2021/08/03 10:38:12;;;;;;;7.25;3.95;;;;;;;36.32;18.09;99203.16;5068623;28;20044;-74
2021/08/03 10:40:44;;;;;;;9.27;4.35;;;;;;;36.36;18.46;99203.72;5070051;28;20044;-74
2021/08/03 10:43:17;;;;;;;7.97;4.63;;;;;;;36.47;18.31;99197.94;5068625;28;20125;-74
2021/08/03 10:45:45;;;;;;;11.75;4.88;;;;;;;36.38;16.81;99195.25;5068834;28;20024;-74
2021/08/03 10:48:30;;;;;;;9.13;4.43;;;;;;;36.49;18.03;99197.41;5070100;28;20532;-75
2021/08/03 10:50:56;;;;;;;20.02;5.18;;;;;;;36.47;17.27;99197.94;5070040;28;20039;-74
2021/08/03 10:53:21;;;;;;;10.85;4.95;;;;;;;36.66;17.25;99203.31;5069928;28;20410;-73
2021/08/03 10:56:00;;;;;;;9.23;4.40;;;;;;;36.85;17.93;99194.13;5068688;28;20090;-74
2021/08/03 10:58:28;;;;;;;10.73;4.00;;;;;;;36.94;17.54;99200.50;5069957;28;20079;-75
2021/08/03 11:01:01;;;;;;;12.73;4.50;;;;;;;36.85;17.54;99202.88;5070118;28;20051;-75
2021/08/03 11:03:33;;;;;;;7.97;4.90;;;;;;;36.81;17.06;99189.34;5069905;28;20501;-74
2021/08/03 11:06:18;;;;;;;8.02;4.50;;;;;;;36.93;17.36;99192.31;5054780;28;20078;-74
2021/08/03 11:08:48;;;;;;;12.25;4.38;;;;;;;37.18;17.74;99190.50;5068389;28;20090;-74
2021/08/03 11:11:19;;;;;;;6.72;3.58;;;;;;;37.02;17.58;99185.41;5065017;28;20117;-73
2021/08/03 11:13:49;;;;;;;5.75;4.13;;;;;;;37.07;17.15;99173.81;5061172;28;20035;-74
2021/08/03 11:16:20;;;;;;;11.02;3.78;;;;;;;37.22;17.70;99178.56;5063463;28;20523;-74
2021/08/03 11:18:53;;;;;;;7.53;4.25;;;;;;;37.35;17.63;99175.94;5065759;28;20656;-74
2021/08/03 11:21:20;;;;;;;8.38;3.92;;;;;;;37.41;17.62;99178.84;5064860;28;20028;-74
2021/08/03 11:24:04;;;;;;;9.38;4.50;;;;;;;37.30;16.05;99182.56;5069362;28;20020;-74
2021/08/03 11:26:34;;;;;;;7.93;4.10;;;;;;;37.28;16.14;99166.91;5060571;28;20078;-74
2021/08/03 11:28:59;;;;;;;8.07;3.65;;;;;;;37.41;16.78;99175.13;5069410;28;20060;-74
2021/08/03 11:31:41;;;;;;;12.10;4.78;;;;;;;37.36;15.83;99170.91;5058172;28;20120;-74
2021/08/03 11:34:07;;;;;;;13.13;4.30;;;;;;;37.50;16.27;99158.16;5060359;28;20039;-73
2021/08/03 11:36:36;;;;;;;9.73;3.83;;;;;;;37.64;16.16;99156.31;5069136;28;20502;-73